Time;durP1;ratioP1;P1;durP2;ratioP2;P2;SDS_P1;SDS_P2;PMS_P1;PMS_P2;Temp;Humidity;BMP_temperature;BMP_pressure;BME280_temperature;BME280_humidity;BME280_pressure;Samples;Min_cycle;Max_cycle;Signal;HPM_P1;HPM_P2
2021/12/29 00:00:25;;;;;;;23.35;5.50;;;;;;;8.92;100.00;100212.41;5061174;28;20482;-73
2021/12/29 00:02:52;;;;;;;23.17;4.93;;;;;;;8.90;100.00;100220.91;5062768;28;20042;-75
2021/12/29 00:05:17;;;;;;;27.02;5.47;;;;;;;8.91;100.00;100228.00;5059141;28;20043;-72
2021/12/29 00:07:43;;;;;;;21.25;5.00;;;;;;;8.86;100.00;100239.00;5044335;28;20020;-73
2021/12/29 00:10:09;;;;;;;24.00;5.25;;;;;;;9.00;100.00;100222.75;5044949;28;20077;-72
2021/12/29 00:12:40;;;;;;;20.13;4.43;;;;;;;8.88;100.00;100225.84;5043173;28;20032;-73
2021/12/29 00:15:08;;;;;;;23.38;5.05;;;;;;;8.79;100.00;100222.94;5062341;28;20029;-74
2021/12/29 00:17:33;;;;;;;24.75;5.10;;;;;;;8.85;100.00;100244.75;5059986;28;20205;-72
2021/12/29 00:19:59;;;;;;;26.90;5.75;;;;;;;9.03;100.00;100257.72;5060317;28;20168;-73
2021/12/29 00:22:24;;;;;;;22.27;5.53;;;;;;;9.04;100.00;100253.09;5052625;28;20036;-72
2021/12/29 00:24:49;;;;;;;25.10;4.55;;;;;;;8.95;100.00;100250.13;5043660;28;20029;-73
2021/12/29 00:27:18;;;;;;;20.23;4.35;;;;;;;8.93;100.00;100255.88;5040268;28;20212;-72
2021/12/29 00:29:44;;;;;;;25.02;5.53;;;;;;;8.99;100.00;100264.88;5025534;28;20036;-72
2021/12/29 00:32:09;;;;;;;24.40;4.07;;;;;;;8.90;100.00;100274.78;5041418;28;20049;-73
2021/12/29 00:34:34;;;;;;;30.25;4.95;;;;;;;9.03;100.00;100271.38;5046965;28;20042;-73
2021/12/29 00:37:00;;;;;;;25.10;4.10;;;;;;;8.88;100.00;100257.84;5048196;28;20131;-72
2021/12/29 00:39:25;;;;;;;27.05;4.45;;;;;;;8.87;100.00;100264.41;5063078;28;20094;-73
2021/12/29 00:41:51;;;;;;;23.73;5.07;;;;;;;8.97;100.00;100272.56;5052819;28;20032;-74
2021/12/29 00:44:17;;;;;;;24.38;4.38;;;;;;;9.09;100.00;100283.13;5047861;28;20347;-73
2021/12/29 00:46:43;;;;;;;16.90;4.03;;;;;;;9.04;100.00;100283.97;5039257;28;20126;-73
2021/12/29 00:49:08;;;;;;;23.42;4.55;;;;;;;8.82;100.00;100285.22;5045960;28;20025;-74
2021/12/29 00:51:34;;;;;;;18.52;3.88;;;;;;;9.11;100.00;100273.50;5039789;28;20020;-74
2021/12/29 00:54:00;;;;;;;22.73;4.30;;;;;;;8.87;100.00;100283.53;5053959;28;20119;-73
2021/12/29 00:56:26;;;;;;;22.05;4.68;;;;;;;9.00;100.00;100293.81;5059298;28;20040;-73
2021/12/29 00:58:51;;;;;;;14.52;3.53;;;;;;;8.94;100.00;100304.00;5065975;28;20125;-73
2021/12/29 01:01:18;;;;;;;16.52;3.40;;;;;;;8.98;100.00;100306.97;5067614;28;20334;-73
2021/12/29 01:03:44;;;;;;;17.58;3.30;;;;;;;8.89;100.00;100319.63;5039869;28;20127;-74
2021/12/29 01:06:10;;;;;;;22.20;3.92;;;;;;;8.90;100.00;100334.91;5066459;28;20253;-73
2021/12/29 01:08:36;;;;;;;21.15;3.80;;;;;;;9.04;100.00;100351.53;5067700;28;20032;-73
2021/12/29 01:11:04;;;;;;;17.10;3.80;;;;;;;9.04;100.00;100344.13;5067751;28;20020;-72
2021/12/29 01:13:31;;;;;;;26.23;4.20;;;;;;;8.99;100.00;100341.44;5065844;28;20138;-74
2021/12/29 01:16:15;;;;;;;19.42;3.75;;;;;;;8.98;100.00;100329.66;5070174;28;20032;-73
2021/12/29 01:18:43;;;;;;;18.10;3.88;;;;;;;8.96;100.00;100350.19;5047472;28;20067;-73
2021/12/29 01:21:09;;;;;;;24.67;4.10;;;;;;;8.97;100.00;100354.56;5063203;28;20040;-74
2021/12/29 01:23:35;;;;;;;23.35;3.72;;;;;;;8.97;100.00;100360.84;5064940;28;20094;-73
2021/12/29 01:26:01;;;;;;;17.65;3.90;;;;;;;8.90;100.00;100371.25;5045748;28;20478;-72
2021/12/29 01:28:26;;;;;;;22.52;3.58;;;;;;;8.97;100.00;100368.25;5045321;28;20467;-73
2021/12/29 01:30:51;;;;;;;17.83;3.50;;;;;;;8.93;100.00;100383.56;5050249;28;20025;-72
2021/12/29 01:33:17;;;;;;;22.60;3.47;;;;;;;8.93;100.00;100383.56;5045565;28;20514;-72
2021/12/29 01:35:42;;;;;;;19.30;3.20;;;;;;;9.07;100.00;100379.09;5043747;28;20041;-73
2021/12/29 01:38:09;;;;;;;19.08;3.20;;;;;;;9.08;100.00;100371.72;5046968;28;20029;-73
2021/12/29 01:40:37;;;;;;;23.17;4.38;;;;;;;8.96;100.00;100377.53;5044870;28;20466;-74
2021/12/29 01:43:09;;;;;;;16.25;3.42;;;;;;;9.09;100.00;100387.84;5046025;28;20028;-72
2021/12/29 01:45:36;;;;;;;20.48;3.63;;;;;;;8.93;100.00;100395.31;5044885;28;20395;-72
2021/12/29 01:48:03;;;;;;;16.50;3.83;;;;;;;9.05;100.00;100395.00;5044554;28;20098;-72
2021/12/29 01:50:30;;;;;;;18.13;3.55;;;;;;;9.09;100.00;100396.03;5042871;28;20031;-73
2021/12/29 01:53:01;;;;;;;14.82;3.20;;;;;;;9.09;100.00;100408.91;5046671;28;20029;-72
2021/12/29 01:55:29;;;;;;;19.50;3.63;;;;;;;8.92;100.00;100406.53;5045479;28;20038;-72
2021/12/29 01:57:55;;;;;;;18.63;3.58;;;;;;;9.10;100.00;100414.09;5047269;28;20074;-73
2021/12/29 02:00:25;;;;;;;32.83;4.65;;;;;;;8.91;100.00;100418.56;5046327;28;20521;-72
2021/12/29 02:02:51;;;;;;;19.50;3.80;;;;;;;8.96;100.00;100429.47;5044690;28;20033;-73
2021/12/29 02:05:16;;;;;;;20.13;3.42;;;;;;;9.00;100.00;100422.34;5044279;28;20071;-72
2021/12/29 02:07:43;;;;;;;23.33;4.07;;;;;;;9.00;100.00;100423.19;5028869;28;20530;-74
2021/12/29 02:10:10;;;;;;;18.20;4.38;;;;;;;9.00;100.00;100427.81;5060982;28;20029;-73
2021/12/29 02:12:36;;;;;;;16.45;3.40;;;;;;;9.00;100.00;100423.19;5063907;28;20035;-73
2021/12/29 02:15:02;;;;;;;20.10;4.18;;;;;;;8.78;100.00;100420.81;5048983;28;20064;-74
2021/12/29 02:17:28;;;;;;;21.00;4.18;;;;;;;8.98;100.00;100427.28;5063498;28;20064;-73
2021/12/29 02:19:59;;;;;;;26.42;5.18;;;;;;;9.03;100.00;100435.44;5030115;28;20490;-73
2021/12/29 02:22:42;;;;;;;21.88;4.18;;;;;;;9.10;100.00;100435.13;5048213;28;20063;-73
2021/12/29 02:27:48;;;;;;;21.52;4.80;;;;;;;9.17;100.00;100428.25;5057495;28;20335;-73
2021/12/29 02:30:17;;;;;;;28.45;5.35;;;;;;;8.95;100.00;100420.47;5067268;28;20043;-73
2021/12/29 02:32:43;;;;;;;26.58;5.53;;;;;;;9.06;100.00;100428.63;5045052;28;20059;-73
2021/12/29 02:35:10;;;;;;;29.65;5.22;;;;;;;8.99;100.00;100432.47;5044409;28;20226;-74
2021/12/29 02:37:38;;;;;;;33.70;6.00;;;;;;;9.00;100.00;100433.28;5046512;28;20136;-73
2021/12/29 02:40:06;;;;;;;32.20;5.45;;;;;;;9.05;100.00;100440.63;5050698;28;20057;-73
2021/12/29 02:42:39;;;;;;;33.83;6.72;;;;;;;8.86;100.00;100452.22;5045982;28;20031;-74
2021/12/29 02:45:06;;;;;;;36.30;5.20;;;;;;;8.90;100.00;100447.00;5046083;28;20029;-73
2021/12/29 02:47:32;;;;;;;32.25;5.50;;;;;;;8.96;100.00;100459.56;5045033;28;20041;-73
2021/12/29 02:49:58;;;;;;;30.75;4.80;;;;;;;8.99;100.00;100465.28;5063434;28;20025;-72
2021/12/29 02:52:24;;;;;;;34.90;5.38;;;;;;;8.98;100.00;100460.91;5066094;28;20033;-72
2021/12/29 02:54:53;;;;;;;36.50;5.40;;;;;;;8.96;100.00;100467.75;5057256;28;20068;-73
2021/12/29 02:57:19;;;;;;;27.00;4.72;;;;;;;8.93;100.00;100490.19;5045426;28;20446;-73
2021/12/29 02:59:44;;;;;;;27.40;4.90;;;;;;;8.87;100.00;100483.09;5044868;28;20020;-72
2021/12/29 03:02:10;;;;;;;30.67;4.90;;;;;;;8.88;100.00;100492.94;5046366;28;20245;-73
2021/12/29 03:04:36;;;;;;;28.98;5.22;;;;;;;8.89;100.00;100502.81;5049550;28;20020;-72
2021/12/29 03:07:02;;;;;;;33.58;5.57;;;;;;;8.99;100.00;100506.28;5062503;28;20406;-71
2021/12/29 03:09:27;;;;;;;23.20;4.18;;;;;;;8.92;100.00;100507.69;5066178;28;20020;-73
2021/12/29 03:11:52;;;;;;;27.88;5.45;;;;;;;8.83;100.00;100510.19;5051850;28;20067;-73
2021/12/29 03:14:18;;;;;;;22.73;4.47;;;;;;;8.91;100.00;100508.81;5045895;28;20537;-72
2021/12/29 03:16:44;;;;;;;28.70;4.57;;;;;;;9.01;100.00;100516.97;5041645;28;20044;-73
2021/12/29 03:19:10;;;;;;;25.48;4.60;;;;;;;8.74;100.00;100520.03;5044064;28;20081;-72
2021/12/29 03:21:36;;;;;;;33.50;4.70;;;;;;;8.86;100.00;100526.03;5039000;28;20037;-72
2021/12/29 03:24:04;;;;;;;28.48;4.70;;;;;;;8.95;100.00;100526.25;5045636;28;20105;-72
2021/12/29 03:26:29;;;;;;;27.63;4.95;;;;;;;8.88;100.00;100529.28;5059396;28;20047;-72
2021/12/29 03:28:57;;;;;;;24.63;4.65;;;;;;;8.94;100.00;100524.66;5062935;28;20463;-71
2021/12/29 03:31:27;;;;;;;28.40;5.15;;;;;;;9.17;100.00;100531.41;5046295;28;20036;-72
2021/12/29 03:33:53;;;;;;;29.75;4.63;;;;;;;8.95;100.00;100535.31;5047744;28;20053;-72
2021/12/29 03:36:20;;;;;;;29.60;5.35;;;;;;;8.78;100.00;100546.53;5045700;28;20086;-73
2021/12/29 03:38:46;;;;;;;29.98;5.03;;;;;;;8.74;100.00;100550.94;5024505;28;20104;-73
2021/12/29 03:41:14;;;;;;;28.60;4.75;;;;;;;8.84;100.00;100552.84;5058054;28;20048;-73
2021/12/29 03:43:42;;;;;;;25.08;5.03;;;;;;;8.86;100.00;100563.50;5062967;28;20718;-73
2021/12/29 03:46:08;;;;;;;30.40;4.65;;;;;;;8.90;100.00;100559.09;5051907;28;20380;-73
2021/12/29 03:48:36;;;;;;;23.80;4.10;;;;;;;8.72;100.00;100568.72;5049602;28;20032;-73
2021/12/29 03:51:03;;;;;;;21.35;4.10;;;;;;;8.81;100.00;100565.13;5045122;28;20292;-73
2021/12/29 03:53:28;;;;;;;23.67;4.88;;;;;;;8.78;100.00;100559.41;5051708;28;20032;-73
2021/12/29 03:55:54;;;;;;;28.92;4.47;;;;;;;8.80;100.00;100563.47;5061246;28;20434;-72
2021/12/29 03:58:21;;;;;;;26.60;4.82;;;;;;;8.71;100.00;100569.81;5064633;28;20020;-73
2021/12/29 04:00:49;;;;;;;25.90;4.53;;;;;;;8.76;100.00;100572.53;5063088;28;20036;-72
2021/12/29 04:03:14;;;;;;;25.10;4.43;;;;;;;8.86;100.00;100566.22;5064354;28;20027;-72
2021/12/29 04:05:41;;;;;;;28.50;4.93;;;;;;;8.78;100.00;100557.47;5048737;28;20033;-72
2021/12/29 04:08:06;;;;;;;27.05;4.28;;;;;;;8.80;100.00;100549.00;5049170;28;20033;-72
2021/12/29 04:10:33;;;;;;;28.30;3.90;;;;;;;8.69;100.00;100553.69;5064203;28;20025;-72
2021/12/29 04:12:59;;;;;;;29.50;4.80;;;;;;;8.63;100.00;100557.53;5063090;28;20062;-73
2021/12/29 04:15:25;;;;;;;23.75;4.22;;;;;;;8.83;100.00;100560.19;5058174;28;20024;-72
2021/12/29 04:17:51;;;;;;;32.70;4.60;;;;;;;8.93;100.00;100559.34;5039981;28;20431;-72
2021/12/29 04:23:07;;;;;;;20.55;4.53;;;;;;;8.93;100.00;100569.47;5045042;28;20514;-73
2021/12/29 04:25:37;;;;;;;28.27;4.60;;;;;;;8.76;100.00;100576.09;5058790;28;20033;-73
2021/12/29 04:28:14;;;;;;;20.35;4.20;;;;;;;8.76;100.00;100569.81;5043351;28;20021;-73
2021/12/29 04:30:40;;;;;;;20.27;5.05;;;;;;;8.83;100.00;100590.28;5058055;28;20034;-73
2021/12/29 04:33:06;;;;;;;29.50;5.35;;;;;;;8.95;100.00;100595.47;5054000;28;20098;-73
2021/12/29 04:35:32;;;;;;;21.88;5.03;;;;;;;8.83;100.00;100597.66;5058643;28;20037;-73
2021/12/29 04:37:58;;;;;;;27.17;4.93;;;;;;;8.74;100.00;100594.69;5055773;28;20207;-74
2021/12/29 04:40:24;;;;;;;25.00;4.70;;;;;;;8.60;100.00;100610.81;5055413;28;20105;-71
2021/12/29 04:42:51;;;;;;;24.13;4.65;;;;;;;8.63;100.00;100610.25;5060319;28;20072;-70
2021/12/29 04:45:16;;;;;;;25.25;4.40;;;;;;;8.76;100.00;100608.88;5083609;28;20032;-70
2021/12/29 04:47:45;;;;;;;28.15;5.30;;;;;;;8.76;100.00;100619.81;5078169;28;20021;-71
2021/12/29 04:51:05;;;;;;;17.42;4.55;;;;;;;8.77;100.00;100621.47;5061816;28;20078;-73
2021/12/29 04:53:01;;;;;;;23.17;4.95;;;;;;;8.93;100.00;100622.25;5078828;28;20282;-71
2021/12/29 04:55:28;;;;;;;24.27;5.10;;;;;;;8.91;100.00;100615.44;5078602;28;20028;-71
2021/12/29 04:57:54;;;;;;;19.50;4.90;;;;;;;8.80;100.00;100607.22;5058733;28;20052;-73
2021/12/29 05:00:23;;;;;;;18.30;4.82;;;;;;;8.78;100.00;100603.13;5061687;28;20065;-73
2021/12/29 05:02:49;;;;;;;20.30;4.60;;;;;;;8.81;100.00;100611.59;5057517;28;20017;-73
2021/12/29 05:05:28;;;;;;;22.40;5.20;;;;;;;8.85;100.00;100620.06;5060110;28;20128;-73
2021/12/29 05:10:37;;;;;;;20.10;4.45;;;;;;;8.89;100.00;100607.50;5083583;28;20035;-73
2021/12/29 05:13:03;;;;;;;22.92;4.88;;;;;;;8.96;100.00;100601.75;5081961;28;20044;-73
2021/12/29 05:15:29;;;;;;;19.73;4.10;;;;;;;8.93;100.00;100613.22;5082558;28;20024;-72
2021/12/29 05:17:56;;;;;;;22.65;4.60;;;;;;;8.99;100.00;100610.19;5066931;28;20211;-72
2021/12/29 05:20:22;;;;;;;21.90;5.93;;;;;;;8.90;100.00;100614.59;5060499;28;20517;-73
2021/12/29 05:22:47;;;;;;;14.88;4.07;;;;;;;8.78;100.00;100619.53;5045175;28;20056;-73
2021/12/29 05:25:13;;;;;;;21.70;4.70;;;;;;;9.00;100.00;100617.31;5046667;28;20024;-73
2021/12/29 05:27:38;;;;;;;17.33;4.85;;;;;;;8.96;100.00;100608.00;5045924;28;20021;-72
2021/12/29 05:30:04;;;;;;;20.10;5.40;;;;;;;8.99;100.00;100607.47;5051211;28;20461;-72
2021/12/29 05:32:32;;;;;;;16.80;4.40;;;;;;;8.98;100.00;100605.00;5058930;28;20045;-72
2021/12/29 05:34:57;;;;;;;19.60;4.53;;;;;;;9.09;100.00;100600.34;5044074;28;20059;-73
2021/12/29 05:37:23;;;;;;;17.60;4.28;;;;;;;9.00;100.00;100614.59;5046064;28;20060;-73
2021/12/29 05:39:49;;;;;;;18.92;4.82;;;;;;;9.05;100.00;100616.50;5043897;28;20443;-72
2021/12/29 05:42:15;;;;;;;15.63;4.78;;;;;;;9.23;100.00;100600.56;5044915;28;20037;-72
2021/12/29 05:44:41;;;;;;;16.27;4.18;;;;;;;9.30;100.00;100601.09;5045227;28;20579;-72
2021/12/29 05:47:06;;;;;;;20.17;4.68;;;;;;;9.11;100.00;100593.47;5011467;28;20036;-73
2021/12/29 05:49:32;;;;;;;14.93;4.55;;;;;;;9.26;100.00;100595.34;5063562;28;20048;-73
2021/12/29 05:51:57;;;;;;;12.00;3.83;;;;;;;9.43;100.00;100605.13;5064867;28;20391;-72
2021/12/29 05:54:23;;;;;;;19.30;5.28;;;;;;;9.36;100.00;100611.75;5069876;28;20032;-72
2021/12/29 05:56:48;;;;;;;17.45;4.65;;;;;;;9.30;100.00;100612.84;5065925;28;20115;-73
2021/12/29 05:59:14;;;;;;;19.38;4.60;;;;;;;9.20;100.00;100610.97;5033100;28;20033;-73
2021/12/29 06:01:42;;;;;;;19.42;4.88;;;;;;;9.29;100.00;100610.38;5064006;28;20309;-73
2021/12/29 06:04:08;;;;;;;18.08;5.13;;;;;;;9.38;100.00;100617.75;5065744;28;20242;-73
2021/12/29 06:06:33;;;;;;;14.02;4.60;;;;;;;9.34;100.00;100616.66;5064782;28;20032;-73
2021/12/29 06:08:59;;;;;;;16.95;4.47;;;;;;;9.29;100.00;100622.16;5066664;28;20031;-73
2021/12/29 06:11:24;;;;;;;13.68;3.97;;;;;;;9.16;100.00;100615.34;5049495;28;20047;-72
2021/12/29 06:13:51;;;;;;;16.35;4.20;;;;;;;9.19;100.00;100622.19;5054960;28;20024;-72
2021/12/29 06:16:16;;;;;;;16.85;4.15;;;;;;;9.18;100.00;100621.38;5035747;28;20219;-72
2021/12/29 06:18:41;;;;;;;13.15;4.45;;;;;;;9.20;100.00;100621.91;5045089;28;20442;-72
2021/12/29 06:21:07;;;;;;;13.65;4.03;;;;;;;9.26;100.00;100613.69;5050742;28;20300;-72
2021/12/29 06:23:32;;;;;;;17.00;4.75;;;;;;;9.41;100.00;100604.59;5065776;28;20123;-73
2021/12/29 06:25:58;;;;;;;13.45;4.30;;;;;;;9.19;100.00;100595.63;5066029;28;20099;-73
2021/12/29 06:28:23;;;;;;;13.98;4.10;;;;;;;9.33;100.00;100619.66;5061669;28;20083;-71
2021/12/29 06:30:49;;;;;;;20.70;4.47;;;;;;;9.45;100.00;100614.69;5066873;28;20116;-72
2021/12/29 06:33:15;;;;;;;19.33;4.82;;;;;;;9.35;100.00;100622.97;5043542;28;20805;-73
2021/12/29 06:35:40;;;;;;;19.60;5.03;;;;;;;9.39;100.00;100624.03;5062741;28;20492;-73
2021/12/29 06:38:05;;;;;;;20.85;5.20;;;;;;;9.35;100.00;100623.78;5063142;28;20031;-73
2021/12/29 06:40:31;;;;;;;15.15;5.30;;;;;;;9.55;100.00;100628.34;5056448;28;20028;-73
2021/12/29 06:42:56;;;;;;;16.40;4.38;;;;;;;9.62;100.00;100624.47;5050105;28;20059;-72
2021/12/29 06:45:22;;;;;;;16.50;4.20;;;;;;;9.49;100.00;100628.63;5063363;28;20031;-72
2021/12/29 06:47:47;;;;;;;12.52;3.72;;;;;;;9.43;100.00;100633.31;5063480;28;20063;-73
2021/12/29 06:50:13;;;;;;;10.98;3.97;;;;;;;9.45;100.00;100633.84;5063070;28;20415;-73
2021/12/29 06:52:39;;;;;;;15.65;4.45;;;;;;;9.46;100.00;100632.78;5065951;28;20101;-72
2021/12/29 06:55:05;;;;;;;15.60;4.30;;;;;;;9.43;100.00;100638.81;5064264;28;20636;-72
2021/12/29 06:57:30;;;;;;;13.88;4.50;;;;;;;9.45;100.00;100635.78;5061876;28;20302;-73
2021/12/29 06:59:56;;;;;;;16.92;4.68;;;;;;;9.48;100.00;100636.03;5058312;28;20032;-72
2021/12/29 07:02:22;;;;;;;16.75;4.35;;;;;;;9.46;100.00;100638.25;5036071;28;20033;-72
2021/12/29 07:04:48;;;;;;;11.68;4.50;;;;;;;9.45;100.00;100644.00;5062955;28;20515;-72
2021/12/29 07:07:14;;;;;;;13.10;3.92;;;;;;;9.52;100.00;100648.06;5039017;28;20101;-73
2021/12/29 07:09:41;;;;;;;12.55;4.75;;;;;;;9.50;100.00;100650.25;5057414;28;20337;-73
2021/12/29 07:12:07;;;;;;;13.48;4.65;;;;;;;9.39;100.00;100648.66;5027680;28;20086;-72
2021/12/29 07:14:33;;;;;;;15.90;5.00;;;;;;;9.45;100.00;100661.22;5066273;28;20043;-73
2021/12/29 07:16:58;;;;;;;15.73;5.32;;;;;;;9.39;100.00;100670.53;5061415;28;20391;-71
2021/12/29 07:19:24;;;;;;;13.85;5.80;;;;;;;9.42;100.00;100677.38;5031130;28;20031;-72
2021/12/29 07:21:49;;;;;;;14.13;5.80;;;;;;;9.37;100.00;100678.22;5063147;28;20025;-72
2021/12/29 07:24:16;;;;;;;15.48;6.30;;;;;;;9.32;100.00;100679.03;5061217;28;20071;-72
2021/12/29 07:26:42;;;;;;;15.95;5.85;;;;;;;9.48;100.00;100679.00;5044792;28;20454;-72
2021/12/29 07:29:08;;;;;;;18.90;6.72;;;;;;;9.29;100.00;100676.03;5058279;28;20089;-72
2021/12/29 07:31:33;;;;;;;12.38;6.10;;;;;;;9.42;100.00;100672.72;5047460;28;20482;-72
2021/12/29 07:34:00;;;;;;;19.55;6.28;;;;;;;9.53;100.00;100663.38;5044311;28;20102;-72
2021/12/29 07:36:25;;;;;;;19.45;6.68;;;;;;;9.52;100.00;100659.00;5024814;28;20048;-72
2021/12/29 07:38:51;;;;;;;15.82;6.53;;;;;;;9.59;100.00;100661.44;5044699;28;20052;-72
2021/12/29 07:41:19;;;;;;;13.38;6.65;;;;;;;9.59;100.00;100653.22;5025908;28;20156;-72
2021/12/29 07:43:45;;;;;;;15.32;6.63;;;;;;;9.64;100.00;100645.00;5043587;28;20033;-73
2021/12/29 07:46:12;;;;;;;16.98;6.28;;;;;;;9.66;100.00;100648.28;5054622;28;20321;-72
2021/12/29 07:48:38;;;;;;;15.23;6.22;;;;;;;9.61;100.00;100647.47;5064135;28;20027;-72
2021/12/29 07:51:05;;;;;;;11.52;5.10;;;;;;;9.63;100.00;100648.03;5062132;28;20013;-72
2021/12/29 07:53:30;;;;;;;11.73;5.70;;;;;;;9.66;100.00;100652.94;5045811;28;20028;-72
2021/12/29 07:55:55;;;;;;;11.48;6.05;;;;;;;9.67;100.00;100649.91;5043583;28;20120;-72
2021/12/29 07:58:22;;;;;;;11.27;6.07;;;;;;;9.65;100.00;100641.16;5054519;28;20427;-72
2021/12/29 08:00:48;;;;;;;15.40;6.30;;;;;;;9.64;100.00;100644.19;5062760;28;20094;-72
2021/12/29 08:03:15;;;;;;;15.98;7.07;;;;;;;9.64;100.00;100655.97;5059892;28;20455;-72
2021/12/29 08:05:41;;;;;;;20.70;7.82;;;;;;;9.65;100.00;100654.84;5045878;28;20543;-74
2021/12/29 08:08:07;;;;;;;11.23;6.30;;;;;;;9.60;100.00;100654.88;5041964;28;20025;-72
2021/12/29 08:10:36;;;;;;;12.10;7.10;;;;;;;9.52;100.00;100647.25;5044323;28;20031;-71
2021/12/29 08:13:06;;;;;;;11.38;7.43;;;;;;;9.54;100.00;100651.34;5061884;28;20043;-71
2021/12/29 08:15:33;;;;;;;14.75;6.85;;;;;;;9.38;100.00;100649.75;5065305;28;20051;-71
2021/12/29 08:18:04;;;;;;;13.48;7.47;;;;;;;9.45;100.00;100661.22;5062540;28;20164;-72
2021/12/29 08:20:32;;;;;;;20.23;7.32;;;;;;;9.43;100.00;100660.69;5036931;28;20127;-72
2021/12/29 08:22:59;;;;;;;11.95;5.97;;;;;;;9.47;100.00;100661.75;5064577;28;20037;-71
2021/12/29 08:25:25;;;;;;;13.98;6.50;;;;;;;9.59;100.00;100641.47;5045708;28;20044;-72
2021/12/29 08:27:50;;;;;;;11.55;7.32;;;;;;;9.67;100.00;100647.16;5044411;28;20399;-71
2021/12/29 08:30:16;;;;;;;12.55;6.80;;;;;;;9.70;100.00;100660.28;5042607;28;20460;-71
2021/12/29 08:32:42;;;;;;;14.02;6.93;;;;;;;9.71;100.00;100669.34;5059433;28;20414;-71
2021/12/29 08:35:08;;;;;;;11.27;6.57;;;;;;;9.67;100.00;100668.25;5050331;28;20044;-72
2021/12/29 08:37:34;;;;;;;14.73;6.50;;;;;;;9.64;100.00;100663.34;5042428;28;20044;-72
2021/12/29 08:40:02;;;;;;;11.15;6.25;;;;;;;9.65;100.00;100662.25;5043342;28;20135;-71
2021/12/29 08:42:27;;;;;;;6.93;6.07;;;;;;;9.70;100.00;100660.28;5025293;28;20048;-72
2021/12/29 08:44:53;;;;;;;12.60;7.15;;;;;;;9.70;100.00;100662.22;5051161;28;20033;-71
2021/12/29 08:47:19;;;;;;;9.10;6.45;;;;;;;9.70;100.00;100654.00;5043285;28;20399;-72
2021/12/29 08:49:46;;;;;;;11.23;6.70;;;;;;;9.70;100.00;100670.44;5062262;28;20032;-72
2021/12/29 08:52:12;;;;;;;12.38;6.65;;;;;;;9.67;100.00;100651.81;5044701;28;20029;-72
2021/12/29 08:54:38;;;;;;;12.65;6.50;;;;;;;9.59;100.00;100639.53;5043321;28;20087;-71
2021/12/29 08:57:06;;;;;;;13.75;7.82;;;;;;;9.56;100.00;100643.66;5040495;28;20029;-73
2021/12/29 08:59:32;;;;;;;18.00;9.68;;;;;;;9.57;100.00;100634.38;5025770;28;20090;-72
2021/12/29 09:01:58;;;;;;;10.50;8.18;;;;;;;9.55;100.00;100641.22;5055589;28;20040;-72
2021/12/29 09:04:23;;;;;;;14.70;8.80;;;;;;;9.56;100.00;100638.19;5061156;28;20040;-72
2021/12/29 09:06:49;;;;;;;16.23;9.02;;;;;;;9.55;100.00;100641.22;5059968;28;20036;-72
2021/12/29 09:09:14;;;;;;;12.88;8.85;;;;;;;9.51;100.00;100630.00;5062272;28;20019;-72
2021/12/29 09:11:39;;;;;;;15.65;8.23;;;;;;;9.45;100.00;100636.59;5045474;28;20619;-73
2021/12/29 09:14:07;;;;;;;13.63;8.63;;;;;;;9.52;100.00;100630.81;5063036;28;20031;-72
2021/12/29 09:16:33;;;;;;;13.43;8.55;;;;;;;9.49;100.00;100626.72;5042648;28;20043;-72
2021/12/29 09:18:58;;;;;;;14.77;8.05;;;;;;;9.53;100.00;100618.78;5063410;28;20028;-72
2021/12/29 09:21:26;;;;;;;14.32;8.40;;;;;;;9.43;100.00;100611.44;5045571;28;20047;-72
2021/12/29 09:23:52;;;;;;;17.92;9.40;;;;;;;9.42;100.00;100633.59;5054957;28;20060;-72
2021/12/29 09:26:18;;;;;;;13.82;8.55;;;;;;;9.47;100.00;100642.59;5059845;28;20029;-72
2021/12/29 09:28:45;;;;;;;16.60;9.25;;;;;;;9.52;100.00;100647.25;5044170;28;20051;-72
2021/12/29 09:31:14;;;;;;;17.80;8.90;;;;;;;9.60;100.00;100651.31;5039194;28;20044;-72
2021/12/29 09:33:40;;;;;;;11.30;8.50;;;;;;;9.59;100.00;100646.94;5044233;28;20124;-72
2021/12/29 09:36:05;;;;;;;11.70;8.00;;;;;;;9.65;100.00;100643.91;5043374;28;20418;-72
2021/12/29 09:38:34;;;;;;;15.45;8.55;;;;;;;9.66;100.00;100639.25;5041735;28;20523;-72
2021/12/29 09:41:01;;;;;;;17.40;9.07;;;;;;;9.69;100.00;100644.97;5041917;28;20033;-72
2021/12/29 09:43:26;;;;;;;13.48;8.75;;;;;;;9.71;100.00;100639.22;5043878;28;20163;-72
2021/12/29 09:45:52;;;;;;;15.38;8.27;;;;;;;9.51;100.00;100630.00;5042034;28;20029;-71
2021/12/29 09:48:18;;;;;;;15.80;9.05;;;;;;;9.54;100.00;100632.19;5037947;28;20431;-71
2021/12/29 09:50:44;;;;;;;13.52;8.23;;;;;;;9.49;100.00;100625.91;5039998;28;20485;-72
2021/12/29 09:53:11;;;;;;;10.55;7.90;;;;;;;9.33;100.00;100609.56;5041163;28;20037;-71
2021/12/29 09:55:38;;;;;;;18.20;8.00;;;;;;;9.32;100.00;100616.13;5042165;28;20510;-71
2021/12/29 09:58:05;;;;;;;13.07;7.88;;;;;;;9.38;100.00;100614.19;5061681;28;20093;-72
2021/12/29 10:00:38;;;;;;;13.18;7.82;;;;;;;9.51;100.00;100613.59;5038138;28;20028;-70
2021/12/29 10:03:07;;;;;;;12.65;8.27;;;;;;;9.56;100.00;100607.28;5040699;28;20032;-71
2021/12/29 10:05:34;;;;;;;14.50;7.50;;;;;;;9.53;100.00;100600.44;5040699;28;20040;-71
2021/12/29 10:08:06;;;;;;;13.45;8.15;;;;;;;9.47;100.00;100600.75;5042009;28;20040;-72
2021/12/29 10:10:34;;;;;;;11.90;7.73;;;;;;;9.44;100.00;100590.34;5043546;28;20227;-72
2021/12/29 10:13:01;;;;;;;15.05;8.07;;;;;;;9.56;100.00;100590.84;5050497;28;20355;-71
2021/12/29 10:15:39;;;;;;;15.15;8.77;;;;;;;9.65;100.00;100585.59;5067844;28;20093;-72
2021/12/29 10:18:09;;;;;;;14.40;8.02;;;;;;;9.66;100.00;100592.72;5071473;28;20437;-72
2021/12/29 10:20:49;;;;;;;16.52;9.10;;;;;;;9.70;100.00;100578.16;5055589;28;20051;-71
2021/12/29 10:23:18;;;;;;;13.82;8.27;;;;;;;9.78;100.00;100571.28;5044564;28;20371;-72
2021/12/29 10:25:43;;;;;;;12.85;8.95;;;;;;;9.83;100.00;100574.00;5046475;28;20029;-71
2021/12/29 10:28:25;;;;;;;16.73;8.85;;;;;;;9.78;100.00;100582.25;5046219;28;20021;-71
2021/12/29 10:31:03;;;;;;;13.32;9.23;;;;;;;9.88;100.00;100575.88;5046307;28;20021;-71
2021/12/29 10:33:38;;;;;;;14.57;10.13;;;;;;;9.78;100.00;100584.16;5043854;28;20273;-70
2021/12/29 10:36:20;;;;;;;18.05;9.18;;;;;;;9.64;100.00;100575.75;5045230;28;20435;-71
2021/12/29 10:38:58;;;;;;;16.38;9.13;;;;;;;9.67;100.00;100577.91;5044730;28;20025;-71
2021/12/29 10:41:23;;;;;;;12.23;8.25;;;;;;;9.84;100.00;100578.38;5042981;28;20605;-70
2021/12/29 10:44:02;;;;;;;12.55;9.10;;;;;;;9.96;100.00;100585.44;5043621;28;20045;-71
2021/12/29 10:46:31;;;;;;;14.95;8.20;;;;;;;9.90;100.00;100581.88;5048756;28;20808;-72
2021/12/29 10:48:59;;;;;;;13.95;7.40;;;;;;;9.86;100.00;100581.63;5066124;28;20024;-72
2021/12/29 10:51:27;;;;;;;12.45;7.20;;;;;;;9.72;100.00;100576.00;5060942;28;20374;-72
2021/12/29 10:54:02;;;;;;;9.45;6.72;;;;;;;9.52;100.00;100579.63;5066597;28;20031;-72
2021/12/29 10:56:27;;;;;;;10.00;7.20;;;;;;;9.64;100.00;100579.31;5045786;28;20061;-72
2021/12/29 10:58:54;;;;;;;18.05;7.53;;;;;;;9.58;100.00;100572.22;5047929;28;20021;-72
2021/12/29 11:01:21;;;;;;;12.80;7.22;;;;;;;9.46;100.00;100561.63;5040985;28;20056;-71
2021/12/29 11:03:55;;;;;;;13.20;7.55;;;;;;;9.51;100.00;100544.34;5009516;28;20025;-72
2021/12/29 11:06:23;;;;;;;12.13;8.05;;;;;;;9.52;100.00;100533.09;5041909;28;20081;-73
2021/12/29 11:08:52;;;;;;;11.05;7.15;;;;;;;9.49;100.00;100527.38;5044105;28;20578;-73
2021/12/29 11:11:23;;;;;;;9.93;7.20;;;;;;;9.53;100.00;100537.50;5044661;28;20021;-74
2021/12/29 11:13:49;;;;;;;12.57;8.05;;;;;;;9.57;100.00;100549.53;5045721;28;20025;-72
2021/12/29 11:16:19;;;;;;;11.95;8.60;;;;;;;9.64;100.00;100546.47;5052291;28;20086;-72
2021/12/29 11:18:50;;;;;;;13.15;8.15;;;;;;;9.63;100.00;100538.53;5043064;28;20036;-73
2021/12/29 11:21:28;;;;;;;11.77;8.38;;;;;;;9.67;100.00;100531.38;5024170;28;20029;-74
2021/12/29 11:23:54;;;;;;;11.13;8.10;;;;;;;9.64;100.00;100523.75;5044231;28;20025;-73